Manacapuru, Brazil
Current Conditions -  °F | °C
As of 12:00 PM on Sunday 25 Jan 2015 (Local Time) from SBEG Reporting Station
Broken Clouds Broken Clouds  
Wind Chill: 86°   Ceiling: 8000
Heat Index: 92°   Visibility: 6mi
Dew Point: 72°   Wind: 12mph
Humidity: 62%   Direction: 70°ENE
Pressure: 29.91"   Gusts: NA
Location:  3.29°S, 60.62°W
Report Text: SBEG 251600Z 07010KT 9999 SCT018 FEW025TCU BKN080 30/22 Q1013
Loading
Personal Weather Stations






























Interactive Weather Map New forecast layout! Learn more

10-Day Weather Forecast

Advertisements
Track Severe Weather on mobile